Andiamo — WDG9912 — position and weather

sailwx.info

Track history (hours):
 
Tides and Currents Weather Stations Pressure Air Temp Water Temp Dewpoint Dewpoint Depression Visibility Wind Speed Wind Dir Waves Ship Positions

Andiamo

Owner: Raine Mr, John J, Point Roberts, WA. More information available from US FCC via Universal Licensing System and Coast Guard Vessel Documentation Center.

Last reported at 2017-Nov-29 21:12 UTC. Time now 2017-Dec-11 00:07 UTC.
Position N 48°41' W 122°43'.
Warning: this ship's position is 11 days out of date.

Length 22 m.

Type: Pleasure craft. MMSI: 367592450.

Date/timePositionNaut miles runAvg speedWind from/ knotsBaromVisibWave heightAir tempDewpointWater temp
2017-Nov-29 21:12N 48°41' W 122°43'2 9.5
2017-Nov-29 21:00N 48°39' W 122°43'5 9.9
2017-Nov-29 20:29N 48°34' W 122°45'610.1
2017-Nov-29 19:54N 48°28' W 122°44'31 7.3
2017-Nov-29 15:40N 47°58' W 122°34'1 8.1
2017-Nov-29 15:30N 47°57' W 122°32'4 8.5
2017-Nov-29 15:00N 47°54' W 122°28'4 8.7
2017-Nov-29 14:30N 47°50' W 122°27'4 8.7
2017-Nov-29 14:00N 47°45' W 122°25'5 9.3
2017-Nov-29 13:30N 47°41' W 122°27'4 7.2
2017-Nov-29 13:00N 47°38' W 122°24'0 0.2
2017-Nov-29 12:29N 47°38' W 122°24'0 0.0
2017-Nov-29 11:59N 47°38' W 122°24'0 0.0
2017-Nov-29 11:29N 47°38' W 122°24'0 0.0
2017-Nov-29 11:00N 47°38' W 122°24'0 0.0
2017-Nov-29 10:30N 47°38' W 122°24'0 0.0
2017-Nov-29 09:59N 47°38' W 122°24'0 0.0
2017-Nov-29 09:29N 47°38' W 122°24'0 0.0
2017-Nov-29 08:59N 47°38' W 122°24'0 0.0
2017-Nov-29 08:29N 47°38' W 122°24'0 0.0
2017-Nov-29 07:59N 47°38' W 122°24'0 0.0
2017-Nov-29 07:30N 47°38' W 122°24'0 0.0
2017-Nov-29 06:59N 47°38' W 122°24'0 0.0
2017-Nov-29 06:29N 47°38' W 122°24'0 0.0
2017-Nov-29 05:59N 47°38' W 122°24'0 0.0
2017-Nov-29 05:29N 47°38' W 122°24'0 0.0
2017-Nov-29 04:59N 47°38' W 122°24'0 0.0
2017-Nov-29 04:29N 47°38' W 122°24'0 0.0
2017-Nov-29 03:59N 47°38' W 122°24'0 0.0
2017-Nov-29 03:30N 47°38' W 122°24'0 0.0
2017-Nov-29 02:59N 47°38' W 122°24'0 0.0
2017-Nov-29 02:30N 47°38' W 122°24'0 0.0
2017-Nov-29 01:59N 47°38' W 122°24'0 0.0
2017-Nov-29 01:30N 47°38' W 122°24'0 0.0
2017-Nov-29 00:59N 47°38' W 122°24'0 0.0
2017-Nov-29 00:27N 47°38' W 122°24'0 0.0
2017-Nov-28 23:59N 47°38' W 122°24'0 0.0
2017-Nov-28 23:29N 47°38' W 122°24'0 0.0
2017-Nov-28 22:59N 47°38' W 122°24'0 0.0
2017-Nov-28 22:29N 47°38' W 122°24'0 0.0
2017-Nov-28 21:59N 47°38' W 122°24'0 0.0
2017-Nov-28 21:29N 47°38' W 122°24'0 0.0
2017-Nov-28 20:59N 47°38' W 122°24'0 0.0
2017-Nov-28 20:29N 47°38' W 122°24'0 0.0
2017-Nov-28 19:56N 47°38' W 122°24'0 0.0
2017-Nov-28 19:30N 47°38' W 122°24'0 0.0
2017-Nov-28 19:00N 47°38' W 122°24'0 0.0
2017-Nov-28 18:29N 47°38' W 122°24'0 0.0
2017-Nov-28 17:59N 47°38' W 122°24'0 0.0
2017-Nov-28 17:29N 47°38' W 122°24'0 0.0
2017-Nov-28 16:59N 47°38' W 122°24'0 0.0
2017-Nov-28 16:27N 47°38' W 122°24'0 0.0
2017-Nov-28 15:59N 47°38' W 122°24'0 0.0
2017-Nov-28 14:59N 47°38' W 122°24'0 0.0
2017-Nov-28 14:29N 47°38' W 122°24'0 0.0
2017-Nov-28 13:59N 47°38' W 122°24'0 0.0
2017-Nov-28 13:30N 47°38' W 122°24'0 0.0
2017-Nov-28 12:59N 47°38' W 122°24'0 0.0
2017-Nov-28 12:29N 47°38' W 122°24'0 0.0
2017-Nov-28 11:59N 47°38' W 122°24'0 0.0
2017-Nov-28 11:30N 47°38' W 122°24'0 0.0
2017-Nov-28 10:59N 47°38' W 122°24'0 0.0
2017-Nov-28 10:29N 47°38' W 122°24'0 0.0
2017-Nov-28 09:59N 47°38' W 122°24'0 0.0
2017-Nov-28 09:29N 47°38' W 122°24'0 0.0
2017-Nov-28 09:00N 47°38' W 122°24'0 0.0
2017-Nov-28 08:29N 47°38' W 122°24'0 0.0
2017-Nov-28 07:59N 47°38' W 122°24'0 0.0
2017-Nov-28 07:30N 47°38' W 122°24'0 0.0
2017-Nov-28 06:59N 47°38' W 122°24'0 0.0
2017-Nov-28 06:30N 47°38' W 122°24'0 0.0
2017-Nov-28 06:00N 47°38' W 122°24'0 0.0
2017-Nov-28 05:29N 47°38' W 122°24'0 0.0
2017-Nov-28 04:29N 47°38' W 122°24'0 0.0
2017-Nov-28 03:59N 47°38' W 122°24'0 0.0
2017-Nov-28 03:29N 47°38' W 122°24'0 0.0
2017-Nov-28 02:59N 47°38' W 122°24'0 0.0
2017-Nov-28 02:29N 47°38' W 122°24'0 0.0
2017-Nov-28 01:59N 47°38' W 122°24'0 0.0
2017-Nov-28 01:29N 47°38' W 122°24'0 0.0
2017-Nov-28 01:00N 47°38' W 122°24'0 0.0
2017-Nov-28 00:29N 47°38' W 122°24'0 0.0
2017-Nov-28 00:00N 47°38' W 122°24'0 0.0
2017-Nov-27 23:29N 47°38' W 122°24'0 0.0
2017-Nov-27 22:59N 47°38' W 122°24'0 0.0
2017-Nov-27 22:29N 47°38' W 122°24'0 0.0
2017-Nov-27 21:59N 47°38' W 122°24'0 0.0
2017-Nov-27 21:29N 47°38' W 122°24'0 0.0
2017-Nov-27 20:59N 47°38' W 122°24'0 0.0
2017-Nov-27 20:29N 47°38' W 122°24'0 0.0
2017-Nov-27 19:59N 47°38' W 122°24'0 0.0
2017-Nov-27 19:30N 47°38' W 122°24'0 0.0
2017-Nov-27 18:59N 47°38' W 122°24'0 0.0
2017-Nov-27 18:29N 47°38' W 122°24'0 0.0
2017-Nov-27 17:59N 47°38' W 122°24'0 0.0
2017-Nov-27 17:29N 47°38' W 122°24'0 0.0
2017-Nov-27 16:59N 47°38' W 122°24'0 0.0
2017-Nov-27 16:29N 47°38' W 122°24'0 0.0
2017-Nov-27 15:59N 47°38' W 122°24'0 0.0
2017-Nov-27 15:30N 47°38' W 122°24'0 0.0
2017-Nov-27 14:59N 47°38' W 122°24'0 0.0
2017-Nov-27 14:29N 47°38' W 122°24'0 0.0
2017-Nov-27 13:59N 47°38' W 122°24'0 0.0
2017-Nov-27 13:29N 47°38' W 122°24'0 0.0
2017-Nov-27 13:00N 47°38' W 122°24'0 0.0
2017-Nov-27 12:29N 47°38' W 122°24'0 0.0
2017-Nov-27 11:59N 47°38' W 122°24'0 0.0
2017-Nov-27 11:29N 47°38' W 122°24'0 0.0
2017-Nov-27 10:59N 47°38' W 122°24'0 0.0
2017-Nov-27 10:30N 47°38' W 122°24'0 0.0
2017-Nov-27 09:59N 47°38' W 122°24'0 0.0
2017-Nov-27 09:29N 47°38' W 122°24'0 0.0
2017-Nov-27 08:59N 47°38' W 122°24'0 0.0
2017-Nov-27 08:30N 47°38' W 122°24'0 0.0
2017-Nov-27 07:59N 47°38' W 122°24'0 0.0
2017-Nov-27 07:30N 47°38' W 122°24'0 0.0
2017-Nov-27 06:59N 47°38' W 122°24'0 0.0
2017-Nov-27 06:29N 47°38' W 122°24'0 0.0
2017-Nov-27 05:56N 47°38' W 122°24'0 0.0
2017-Nov-27 05:30N 47°38' W 122°24'0 0.0
2017-Nov-27 05:00N 47°38' W 122°24'0 0.0
2017-Nov-27 04:29N 47°38' W 122°24'0 0.0
2017-Nov-27 03:59N 47°38' W 122°24'0 0.0
2017-Nov-27 03:29N 47°38' W 122°24'0 0.0
2017-Nov-27 02:59N 47°38' W 122°24'0 0.0
2017-Nov-27 02:29N 47°38' W 122°24'0 0.0
2017-Nov-27 01:59N 47°38' W 122°24'0 0.0
2017-Nov-27 01:29N 47°38' W 122°24'0 0.0
2017-Nov-27 00:59N 47°38' W 122°24'0 0.0
2017-Nov-27 00:29N 47°38' W 122°24'0 0.0
2017-Nov-26 23:59N 47°38' W 122°24'0 0.0
2017-Nov-26 23:29N 47°38' W 122°24'0 0.0
2017-Nov-26 23:00N 47°38' W 122°24'0 0.0
2017-Nov-26 22:30N 47°38' W 122°24'0 0.0
2017-Nov-26 21:59N 47°38' W 122°24'0 0.0
2017-Nov-26 21:29N 47°38' W 122°24'0 0.0
2017-Nov-26 20:59N 47°38' W 122°24'0 0.0
2017-Nov-26 20:29N 47°38' W 122°24'0 0.0
2017-Nov-26 19:59N 47°38' W 122°24'0 0.0
2017-Nov-26 19:29N 47°38' W 122°24'0 0.0
2017-Nov-26 18:59N 47°38' W 122°24'0 0.0
2017-Nov-26 18:29N 47°38' W 122°24'0 0.0
2017-Nov-26 17:59N 47°38' W 122°24'0 0.0
2017-Nov-26 17:29N 47°38' W 122°24'0 0.0
2017-Nov-26 16:59N 47°38' W 122°24'0 0.0
2017-Nov-26 16:29N 47°38' W 122°24'0 0.0
2017-Nov-26 15:59N 47°38' W 122°24'0 0.0
2017-Nov-26 15:29N 47°38' W 122°24'0 0.0
2017-Nov-26 14:59N 47°38' W 122°24'0 0.0
2017-Nov-26 14:29N 47°38' W 122°24'0 0.0
2017-Nov-26 13:59N 47°38' W 122°24'0 0.0
2017-Nov-26 13:29N 47°38' W 122°24'0 0.0
2017-Nov-26 12:59N 47°38' W 122°24'0 0.0
2017-Nov-26 12:29N 47°38' W 122°24'0 0.0
2017-Nov-26 11:59N 47°38' W 122°24'0 0.0
2017-Nov-26 11:29N 47°38' W 122°24'0 0.0
2017-Nov-26 10:59N 47°38' W 122°24'0 0.0
2017-Nov-26 10:29N 47°38' W 122°24'0 0.0
2017-Nov-26 09:59N 47°38' W 122°24'0 0.0
2017-Nov-26 09:30N 47°38' W 122°24'0 0.0
2017-Nov-26 08:59N 47°38' W 122°24'0 0.0
2017-Nov-26 08:29N 47°38' W 122°24'0 0.0
2017-Nov-26 07:59N 47°38' W 122°24'0 0.0
2017-Nov-26 07:26N 47°38' W 122°24'0 0.0
2017-Nov-26 06:59N 47°38' W 122°24'0 0.0
2017-Nov-26 06:30N 47°38' W 122°24'0 0.0
2017-Nov-26 05:59N 47°38' W 122°24'0 0.0
2017-Nov-26 05:29N 47°38' W 122°24'0 0.0
2017-Nov-26 04:59N 47°38' W 122°24'0 0.0
2017-Nov-26 04:29N 47°38' W 122°24'0 0.0
2017-Nov-26 03:59N 47°38' W 122°24'0 0.0
2017-Nov-26 03:29N 47°38' W 122°24'0 0.0
2017-Nov-26 02:59N 47°38' W 122°24'0 0.0
2017-Nov-26 02:29N 47°38' W 122°24'0 0.0
2017-Nov-26 01:59N 47°38' W 122°24'0 0.0
2017-Nov-26 01:29N 47°38' W 122°24'0 0.0
2017-Nov-26 00:59N 47°38' W 122°24'0 0.0
2017-Nov-26 00:29N 47°38' W 122°24'0 0.0
2017-Nov-25 23:59N 47°38' W 122°24'0 0.0
2017-Nov-25 23:29N 47°38' W 122°24'0 0.0
2017-Nov-25 22:59N 47°38' W 122°24'0 0.0
2017-Nov-25 22:29N 47°38' W 122°24'0 0.0
2017-Nov-25 21:59N 47°38' W 122°24'0 0.0
2017-Nov-25 21:30N 47°38' W 122°24'0 0.0
2017-Nov-25 20:59N 47°38' W 122°24'0 0.0
2017-Nov-25 20:29N 47°38' W 122°24'0 0.0
2017-Nov-25 19:59N 47°38' W 122°24'0 0.0
2017-Nov-25 19:29N 47°38' W 122°24'0 0.0
2017-Nov-25 18:59N 47°38' W 122°24'0 0.0
2017-Nov-25 18:29N 47°38' W 122°24'0 0.0
2017-Nov-25 18:00N 47°38' W 122°24'0 0.0
2017-Nov-25 17:29N 47°38' W 122°24'0 0.0
2017-Nov-25 16:59N 47°38' W 122°24'0 0.0
2017-Nov-25 16:29N 47°38' W 122°24'0 0.0
2017-Nov-25 15:59N 47°38' W 122°24'0 0.0
2017-Nov-25 15:29N 47°38' W 122°24'0 0.0
2017-Nov-25 14:59N 47°38' W 122°24'0 0.0
2017-Nov-25 14:29N 47°38' W 122°24'0 0.0
2017-Nov-25 14:00N 47°38' W 122°24'0 0.0
2017-Nov-25 13:29N 47°38' W 122°24'0 0.0
2017-Nov-25 13:00N 47°38' W 122°24'0 0.0
2017-Nov-25 12:29N 47°38' W 122°24'0 0.0
2017-Nov-25 11:59N 47°38' W 122°24'0 0.0
2017-Nov-25 11:30N 47°38' W 122°24'0 0.0
2017-Nov-25 10:59N 47°38' W 122°24'0 0.0
2017-Nov-25 10:29N 47°38' W 122°24'0 0.0
2017-Nov-25 09:59N 47°38' W 122°24'0 0.0
2017-Nov-25 09:29N 47°38' W 122°24'0 0.0
2017-Nov-25 08:59N 47°38' W 122°24'0 0.0
2017-Nov-25 08:29N 47°38' W 122°24'0 0.0
2017-Nov-25 07:59N 47°38' W 122°24'0 0.0
2017-Nov-25 07:29N 47°38' W 122°24'0 0.0
2017-Nov-25 06:59N 47°38' W 122°24'0 0.0
2017-Nov-25 06:29N 47°38' W 122°24'0 0.0
2017-Nov-25 06:00N 47°38' W 122°24'0 0.0
2017-Nov-25 05:30N 47°38' W 122°24'0 0.0
2017-Nov-25 04:59N 47°38' W 122°24'0 0.0
2017-Nov-25 04:29N 47°38' W 122°24'0 0.0
2017-Nov-25 03:59N 47°38' W 122°24'0 0.0
2017-Nov-25 03:29N 47°38' W 122°24'0 0.0
2017-Nov-25 03:00N 47°38' W 122°24'0 0.0
2017-Nov-25 02:29N 47°38' W 122°24'0 0.0
2017-Nov-25 01:59N 47°38' W 122°24'0 0.0
2017-Nov-25 01:30N 47°38' W 122°24'0 0.0
2017-Nov-25 00:59N 47°38' W 122°24'0 0.0
2017-Nov-25 00:29N 47°38' W 122°24'0 0.0
2017-Nov-24 23:59N 47°38' W 122°24'0 0.0
2017-Nov-24 23:29N 47°38' W 122°24'0 0.0
2017-Nov-24 22:59N 47°38' W 122°24'0 0.0
2017-Nov-24 22:29N 47°38' W 122°24'0 0.0
2017-Nov-24 21:59N 47°38' W 122°24'0 0.0
2017-Nov-24 21:29N 47°38' W 122°24'0 0.0
2017-Nov-24 20:59N 47°38' W 122°24'0 0.0
2017-Nov-24 20:29N 47°38' W 122°24'0 0.0
2017-Nov-24 19:59N 47°38' W 122°24'0 0.0
2017-Nov-24 19:29N 47°38' W 122°24'0 0.0
2017-Nov-24 19:00N 47°38' W 122°24'0 0.0
2017-Nov-24 18:29N 47°38' W 122°24'0 0.0
2017-Nov-24 17:59N 47°38' W 122°24'0 0.0
2017-Nov-24 17:29N 47°38' W 122°24'0 0.0
2017-Nov-24 17:00N 47°38' W 122°24'0 0.0
2017-Nov-24 16:30N 47°38' W 122°24'0 0.0
2017-Nov-24 15:56N 47°38' W 122°24'0 0.0
2017-Nov-24 15:29N 47°38' W 122°24'0 0.0
2017-Nov-24 14:59N 47°38' W 122°24'0 0.0
2017-Nov-24 14:30N 47°38' W 122°24'0 0.0
2017-Nov-24 14:00N 47°38' W 122°24'0 0.0
2017-Nov-24 13:29N 47°38' W 122°24'0 0.0
2017-Nov-24 12:59N 47°38' W 122°24'0 0.0
2017-Nov-24 12:29N 47°38' W 122°24'0 0.0
2017-Nov-24 11:59N 47°38' W 122°24'0 0.0
2017-Nov-24 11:29N 47°38' W 122°24'0 0.0
2017-Nov-24 11:00N 47°38' W 122°24'0 0.0
2017-Nov-24 10:30N 47°38' W 122°24'0 0.0
2017-Nov-24 09:59N 47°38' W 122°24'0 0.0
2017-Nov-24 09:29N 47°38' W 122°24'0 0.0
2017-Nov-24 08:59N 47°38' W 122°24'0 0.0
2017-Nov-24 08:29N 47°38' W 122°24'0 0.0
2017-Nov-24 07:59N 47°38' W 122°24'0 0.0
2017-Nov-24 07:29N 47°38' W 122°24'0 0.0
2017-Nov-24 07:00N 47°38' W 122°24'0 0.0
2017-Nov-24 06:29N 47°38' W 122°24'0 0.0
2017-Nov-24 05:59N 47°38' W 122°24'0 0.0
2017-Nov-24 05:29N 47°38' W 122°24'0 0.0
2017-Nov-24 04:59N 47°38' W 122°24'0 0.0
2017-Nov-24 04:30N 47°38' W 122°24'0 0.0
2017-Nov-24 04:00N 47°38' W 122°24'0 0.0
2017-Nov-24 03:29N 47°38' W 122°24'0 0.0
2017-Nov-24 03:00N 47°38' W 122°24'0 0.0
2017-Nov-24 02:30N 47°38' W 122°24'0 0.0
2017-Nov-24 02:00N 47°38' W 122°24'0 0.0
2017-Nov-24 01:29N 47°38' W 122°24'0 0.0
2017-Nov-24 00:59N 47°38' W 122°24'0 0.0
2017-Nov-24 00:29N 47°38' W 122°24'0 0.0
2017-Nov-23 23:59N 47°38' W 122°24'0 0.0
2017-Nov-23 23:29N 47°38' W 122°24'0 0.0
2017-Nov-23 22:59N 47°38' W 122°24'0 0.0
2017-Nov-23 22:29N 47°38' W 122°24'0 0.0
2017-Nov-23 21:59N 47°38' W 122°24'0 0.0
2017-Nov-23 21:29N 47°38' W 122°24'0 0.0
2017-Nov-23 20:59N 47°38' W 122°24'0 0.0
2017-Nov-23 20:29N 47°38' W 122°24'0 0.0
2017-Nov-23 19:59N 47°38' W 122°24'0 0.0
2017-Nov-23 19:29N 47°38' W 122°24'0 0.0
2017-Nov-23 18:59N 47°38' W 122°24'0 0.0
2017-Nov-23 18:29N 47°38' W 122°24'0 0.0
2017-Nov-23 17:59N 47°38' W 122°24'0 0.0
2017-Nov-23 17:29N 47°38' W 122°24'0 0.0
2017-Nov-23 16:59N 47°38' W 122°24'0 0.0
2017-Nov-23 16:29N 47°38' W 122°24'0 0.0
2017-Nov-23 15:59N 47°38' W 122°24'0 0.0
2017-Nov-23 15:29N 47°38' W 122°24'0 0.0
2017-Nov-23 14:59N 47°38' W 122°24'0 0.0
2017-Nov-23 14:29N 47°38' W 122°24'0 0.0
2017-Nov-23 13:59N 47°38' W 122°24'0 0.0
2017-Nov-23 13:29N 47°38' W 122°24'0 0.0
2017-Nov-23 12:59N 47°38' W 122°24'0 0.0
2017-Nov-23 12:29N 47°38' W 122°24'0 0.0
2017-Nov-23 11:59N 47°38' W 122°24'0 0.0
2017-Nov-23 11:29N 47°38' W 122°24'0 0.0
2017-Nov-23 10:59N 47°38' W 122°24'0 0.0
2017-Nov-23 10:29N 47°38' W 122°24'0 0.0
2017-Nov-23 09:59N 47°38' W 122°24'0 0.0
2017-Nov-23 09:29N 47°38' W 122°24'0 0.0
2017-Nov-23 08:59N 47°38' W 122°24'0 0.0
2017-Nov-23 08:29N 47°38' W 122°24'0 0.0
2017-Nov-23 07:59N 47°38' W 122°24'0 0.0
2017-Nov-23 07:29N 47°38' W 122°24'0 0.0
2017-Nov-23 06:59N 47°38' W 122°24'0 0.0
2017-Nov-23 06:29N 47°38' W 122°24'0 0.0
2017-Nov-23 05:59N 47°38' W 122°24'0 0.0
2017-Nov-23 05:29N 47°38' W 122°24'0 0.0
2017-Nov-23 04:59N 47°38' W 122°24'0 0.0
2017-Nov-23 04:29N 47°38' W 122°24'0 0.0
2017-Nov-23 03:59N 47°38' W 122°24'0 0.0
2017-Nov-23 03:29N 47°38' W 122°24'0 0.0
2017-Nov-23 02:59N 47°38' W 122°24'0 0.0
2017-Nov-23 02:29N 47°38' W 122°24'0 0.0
2017-Nov-23 01:59N 47°38' W 122°24'0 0.0
2017-Nov-23 01:29N 47°38' W 122°24'0 0.0
2017-Nov-23 00:59N 47°38' W 122°24'0 0.0
2017-Nov-23 00:29N 47°38' W 122°24'0 0.0
2017-Nov-22 23:59N 47°38' W 122°24'0 0.0
2017-Nov-22 23:29N 47°38' W 122°24'0 0.0
2017-Nov-22 22:59N 47°38' W 122°24'0 0.0
2017-Nov-22 22:29N 47°38' W 122°24'0 0.0
2017-Nov-22 21:59N 47°38' W 122°24'0 0.0
2017-Nov-22 21:29N 47°38' W 122°24'0 0.0
2017-Nov-22 20:59N 47°38' W 122°24'0 0.0
2017-Nov-22 20:29N 47°38' W 122°24'0 0.0
2017-Nov-22 19:59N 47°38' W 122°24'0 0.0
2017-Nov-22 19:29N 47°38' W 122°24'  
2017-Nov-20 00:29N 47°38' W 122°24'0 0.0
2017-Nov-19 23:59N 47°38' W 122°24'0 0.0
2017-Nov-19 23:29N 47°38' W 122°24'0 0.0
2017-Nov-19 23:00N 47°38' W 122°24'0 0.0
2017-Nov-19 22:30N 47°38' W 122°24'0 0.0
2017-Nov-19 22:00N 47°38' W 122°24'0 0.0
2017-Nov-19 21:30N 47°38' W 122°24'  
Track history (hours):
 
Tides and Currents Weather Stations Pressure Air Temp Water Temp Dewpoint Dewpoint Depression Visibility Wind Speed Wind Dir Waves Ship Positions

Andiamo

Owner: Raine Mr, John J, Point Roberts, WA. More information available from US FCC via Universal Licensing System and Coast Guard Vessel Documentation Center.

Last reported at 2017-Nov-29 21:12 UTC. Time now 2017-Dec-11 00:07 UTC.
Position N 48°41' W 122°43'.
Warning: this ship's position is 11 days out of date.

Length 22 m.

Type: Pleasure craft. MMSI: 367592450.

Date/timePositionNaut miles runAvg speedWind from/ knotsBaromVisibWave heightAir tempDewpointWater temp
2017-Nov-29 21:12N 48°41' W 122°43'2 9.5
2017-Nov-29 21:00N 48°39' W 122°43'5 9.9
2017-Nov-29 20:29N 48°34' W 122°45'610.1
2017-Nov-29 19:54N 48°28' W 122°44'31 7.3
2017-Nov-29 15:40N 47°58' W 122°34'1 8.1
2017-Nov-29 15:30N 47°57' W 122°32'4 8.5
2017-Nov-29 15:00N 47°54' W 122°28'4 8.7
2017-Nov-29 14:30N 47°50' W 122°27'4 8.7
2017-Nov-29 14:00N 47°45' W 122°25'5 9.3
2017-Nov-29 13:30N 47°41' W 122°27'4 7.2
2017-Nov-29 13:00N 47°38' W 122°24'0 0.2
2017-Nov-29 12:29N 47°38' W 122°24'0 0.0
2017-Nov-29 11:59N 47°38' W 122°24'0 0.0
2017-Nov-29 11:29N 47°38' W 122°24'0 0.0
2017-Nov-29 11:00N 47°38' W 122°24'0 0.0
2017-Nov-29 10:30N 47°38' W 122°24'0 0.0
2017-Nov-29 09:59N 47°38' W 122°24'0 0.0
2017-Nov-29 09:29N 47°38' W 122°24'0 0.0
2017-Nov-29 08:59N 47°38' W 122°24'0 0.0
2017-Nov-29 08:29N 47°38' W 122°24'0 0.0
2017-Nov-29 07:59N 47°38' W 122°24'0 0.0
2017-Nov-29 07:30N 47°38' W 122°24'0 0.0
2017-Nov-29 06:59N 47°38' W 122°24'0 0.0
2017-Nov-29 06:29N 47°38' W 122°24'0 0.0
2017-Nov-29 05:59N 47°38' W 122°24'0 0.0
2017-Nov-29 05:29N 47°38' W 122°24'0 0.0
2017-Nov-29 04:59N 47°38' W 122°24'0 0.0
2017-Nov-29 04:29N 47°38' W 122°24'0 0.0
2017-Nov-29 03:59N 47°38' W 122°24'0 0.0
2017-Nov-29 03:30N 47°38' W 122°24'0 0.0
2017-Nov-29 02:59N 47°38' W 122°24'0 0.0
2017-Nov-29 02:30N 47°38' W 122°24'0 0.0
2017-Nov-29 01:59N 47°38' W 122°24'0 0.0
2017-Nov-29 01:30N 47°38' W 122°24'0 0.0
2017-Nov-29 00:59N 47°38' W 122°24'0 0.0
2017-Nov-29 00:27N 47°38' W 122°24'0 0.0
2017-Nov-28 23:59N 47°38' W 122°24'0 0.0
2017-Nov-28 23:29N 47°38' W 122°24'0 0.0
2017-Nov-28 22:59N 47°38' W 122°24'0 0.0
2017-Nov-28 22:29N 47°38' W 122°24'0 0.0
2017-Nov-28 21:59N 47°38' W 122°24'0 0.0
2017-Nov-28 21:29N 47°38' W 122°24'0 0.0
2017-Nov-28 20:59N 47°38' W 122°24'0 0.0
2017-Nov-28 20:29N 47°38' W 122°24'0 0.0
2017-Nov-28 19:56N 47°38' W 122°24'0 0.0
2017-Nov-28 19:30N 47°38' W 122°24'0 0.0
2017-Nov-28 19:00N 47°38' W 122°24'0 0.0
2017-Nov-28 18:29N 47°38' W 122°24'0 0.0
2017-Nov-28 17:59N 47°38' W 122°24'0 0.0
2017-Nov-28 17:29N 47°38' W 122°24'0 0.0
2017-Nov-28 16:59N 47°38' W 122°24'0 0.0
2017-Nov-28 16:27N 47°38' W 122°24'0 0.0
2017-Nov-28 15:59N 47°38' W 122°24'0 0.0
2017-Nov-28 14:59N 47°38' W 122°24'0 0.0
2017-Nov-28 14:29N 47°38' W 122°24'0 0.0
2017-Nov-28 13:59N 47°38' W 122°24'0 0.0
2017-Nov-28 13:30N 47°38' W 122°24'0 0.0
2017-Nov-28 12:59N 47°38' W 122°24'0 0.0
2017-Nov-28 12:29N 47°38' W 122°24'0 0.0
2017-Nov-28 11:59N 47°38' W 122°24'0 0.0
2017-Nov-28 11:30N 47°38' W 122°24'0 0.0
2017-Nov-28 10:59N 47°38' W 122°24'0 0.0
2017-Nov-28 10:29N 47°38' W 122°24'0 0.0
2017-Nov-28 09:59N 47°38' W 122°24'0 0.0
2017-Nov-28 09:29N 47°38' W 122°24'0 0.0
2017-Nov-28 09:00N 47°38' W 122°24'0 0.0
2017-Nov-28 08:29N 47°38' W 122°24'0 0.0
2017-Nov-28 07:59N 47°38' W 122°24'0 0.0
2017-Nov-28 07:30N 47°38' W 122°24'0 0.0
2017-Nov-28 06:59N 47°38' W 122°24'0 0.0
2017-Nov-28 06:30N 47°38' W 122°24'0 0.0
2017-Nov-28 06:00N 47°38' W 122°24'0 0.0
2017-Nov-28 05:29N 47°38' W 122°24'0 0.0
2017-Nov-28 04:29N 47°38' W 122°24'0 0.0
2017-Nov-28 03:59N 47°38' W 122°24'0 0.0
2017-Nov-28 03:29N 47°38' W 122°24'0 0.0
2017-Nov-28 02:59N 47°38' W 122°24'0 0.0
2017-Nov-28 02:29N 47°38' W 122°24'0 0.0
2017-Nov-28 01:59N 47°38' W 122°24'0 0.0
2017-Nov-28 01:29N 47°38' W 122°24'0 0.0
2017-Nov-28 01:00N 47°38' W 122°24'0 0.0
2017-Nov-28 00:29N 47°38' W 122°24'0 0.0
2017-Nov-28 00:00N 47°38' W 122°24'0 0.0
2017-Nov-27 23:29N 47°38' W 122°24'0 0.0
2017-Nov-27 22:59N 47°38' W 122°24'0 0.0
2017-Nov-27 22:29N 47°38' W 122°24'0 0.0
2017-Nov-27 21:59N 47°38' W 122°24'0 0.0
2017-Nov-27 21:29N 47°38' W 122°24'0 0.0
2017-Nov-27 20:59N 47°38' W 122°24'0 0.0
2017-Nov-27 20:29N 47°38' W 122°24'0 0.0
2017-Nov-27 19:59N 47°38' W 122°24'0 0.0
2017-Nov-27 19:30N 47°38' W 122°24'0 0.0
2017-Nov-27 18:59N 47°38' W 122°24'0 0.0
2017-Nov-27 18:29N 47°38' W 122°24'0 0.0
2017-Nov-27 17:59N 47°38' W 122°24'0 0.0
2017-Nov-27 17:29N 47°38' W 122°24'0 0.0
2017-Nov-27 16:59N 47°38' W 122°24'0 0.0
2017-Nov-27 16:29N 47°38' W 122°24'0 0.0
2017-Nov-27 15:59N 47°38' W 122°24'0 0.0
2017-Nov-27 15:30N 47°38' W 122°24'0 0.0
2017-Nov-27 14:59N 47°38' W 122°24'0 0.0
2017-Nov-27 14:29N 47°38' W 122°24'0 0.0
2017-Nov-27 13:59N 47°38' W 122°24'0 0.0
2017-Nov-27 13:29N 47°38' W 122°24'0 0.0
2017-Nov-27 13:00N 47°38' W 122°24'0 0.0
2017-Nov-27 12:29N 47°38' W 122°24'0 0.0
2017-Nov-27 11:59N 47°38' W 122°24'0 0.0
2017-Nov-27 11:29N 47°38' W 122°24'0 0.0
2017-Nov-27 10:59N 47°38' W 122°24'0 0.0
2017-Nov-27 10:30N 47°38' W 122°24'0 0.0
2017-Nov-27 09:59N 47°38' W 122°24'0 0.0
2017-Nov-27 09:29N 47°38' W 122°24'0 0.0
2017-Nov-27 08:59N 47°38' W 122°24'0 0.0
2017-Nov-27 08:30N 47°38' W 122°24'0 0.0
2017-Nov-27 07:59N 47°38' W 122°24'0 0.0
2017-Nov-27 07:30N 47°38' W 122°24'0 0.0
2017-Nov-27 06:59N 47°38' W 122°24'0 0.0
2017-Nov-27 06:29N 47°38' W 122°24'0 0.0
2017-Nov-27 05:56N 47°38' W 122°24'0 0.0
2017-Nov-27 05:30N 47°38' W 122°24'0 0.0
2017-Nov-27 05:00N 47°38' W 122°24'0 0.0
2017-Nov-27 04:29N 47°38' W 122°24'0 0.0
2017-Nov-27 03:59N 47°38' W 122°24'0 0.0
2017-Nov-27 03:29N 47°38' W 122°24'0 0.0
2017-Nov-27 02:59N 47°38' W 122°24'0 0.0
2017-Nov-27 02:29N 47°38' W 122°24'0 0.0
2017-Nov-27 01:59N 47°38' W 122°24'0 0.0
2017-Nov-27 01:29N 47°38' W 122°24'0 0.0
2017-Nov-27 00:59N 47°38' W 122°24'0 0.0
2017-Nov-27 00:29N 47°38' W 122°24'0 0.0
2017-Nov-26 23:59N 47°38' W 122°24'0 0.0
2017-Nov-26 23:29N 47°38' W 122°24'0 0.0
2017-Nov-26 23:00N 47°38' W 122°24'0 0.0
2017-Nov-26 22:30N 47°38' W 122°24'0 0.0
2017-Nov-26 21:59N 47°38' W 122°24'0 0.0
2017-Nov-26 21:29N 47°38' W 122°24'0 0.0
2017-Nov-26 20:59N 47°38' W 122°24'0 0.0
2017-Nov-26 20:29N 47°38' W 122°24'0 0.0
2017-Nov-26 19:59N 47°38' W 122°24'0 0.0
2017-Nov-26 19:29N 47°38' W 122°24'0 0.0
2017-Nov-26 18:59N 47°38' W 122°24'0 0.0
2017-Nov-26 18:29N 47°38' W 122°24'0 0.0
2017-Nov-26 17:59N 47°38' W 122°24'0 0.0
2017-Nov-26 17:29N 47°38' W 122°24'0 0.0
2017-Nov-26 16:59N 47°38' W 122°24'0 0.0
2017-Nov-26 16:29N 47°38' W 122°24'0 0.0
2017-Nov-26 15:59N 47°38' W 122°24'0 0.0
2017-Nov-26 15:29N 47°38' W 122°24'0 0.0
2017-Nov-26 14:59N 47°38' W 122°24'0 0.0
2017-Nov-26 14:29N 47°38' W 122°24'0 0.0
2017-Nov-26 13:59N 47°38' W 122°24'0 0.0
2017-Nov-26 13:29N 47°38' W 122°24'0 0.0
2017-Nov-26 12:59N 47°38' W 122°24'0 0.0
2017-Nov-26 12:29N 47°38' W 122°24'0 0.0
2017-Nov-26 11:59N 47°38' W 122°24'0 0.0
2017-Nov-26 11:29N 47°38' W 122°24'0 0.0
2017-Nov-26 10:59N 47°38' W 122°24'0 0.0
2017-Nov-26 10:29N 47°38' W 122°24'0 0.0
2017-Nov-26 09:59N 47°38' W 122°24'0 0.0
2017-Nov-26 09:30N 47°38' W 122°24'0 0.0
2017-Nov-26 08:59N 47°38' W 122°24'0 0.0
2017-Nov-26 08:29N 47°38' W 122°24'0 0.0
2017-Nov-26 07:59N 47°38' W 122°24'0 0.0
2017-Nov-26 07:26N 47°38' W 122°24'0 0.0
2017-Nov-26 06:59N 47°38' W 122°24'0 0.0
2017-Nov-26 06:30N 47°38' W 122°24'0 0.0
2017-Nov-26 05:59N 47°38' W 122°24'0 0.0
2017-Nov-26 05:29N 47°38' W 122°24'0 0.0
2017-Nov-26 04:59N 47°38' W 122°24'0 0.0
2017-Nov-26 04:29N 47°38' W 122°24'0 0.0
2017-Nov-26 03:59N 47°38' W 122°24'0 0.0
2017-Nov-26 03:29N 47°38' W 122°24'0 0.0
2017-Nov-26 02:59N 47°38' W 122°24'0 0.0
2017-Nov-26 02:29N 47°38' W 122°24'0 0.0
2017-Nov-26 01:59N 47°38' W 122°24'0 0.0
2017-Nov-26 01:29N 47°38' W 122°24'0 0.0
2017-Nov-26 00:59N 47°38' W 122°24'0 0.0
2017-Nov-26 00:29N 47°38' W 122°24'0 0.0
2017-Nov-25 23:59N 47°38' W 122°24'0 0.0
2017-Nov-25 23:29N 47°38' W 122°24'0 0.0
2017-Nov-25 22:59N 47°38' W 122°24'0 0.0
2017-Nov-25 22:29N 47°38' W 122°24'0 0.0
2017-Nov-25 21:59N 47°38' W 122°24'0 0.0
2017-Nov-25 21:30N 47°38' W 122°24'0 0.0
2017-Nov-25 20:59N 47°38' W 122°24'0 0.0
2017-Nov-25 20:29N 47°38' W 122°24'0 0.0
2017-Nov-25 19:59N 47°38' W 122°24'0 0.0
2017-Nov-25 19:29N 47°38' W 122°24'0 0.0
2017-Nov-25 18:59N 47°38' W 122°24'0 0.0
2017-Nov-25 18:29N 47°38' W 122°24'0 0.0
2017-Nov-25 18:00N 47°38' W 122°24'0 0.0
2017-Nov-25 17:29N 47°38' W 122°24'0 0.0
2017-Nov-25 16:59N 47°38' W 122°24'0 0.0
2017-Nov-25 16:29N 47°38' W 122°24'0 0.0
2017-Nov-25 15:59N 47°38' W 122°24'0 0.0
2017-Nov-25 15:29N 47°38' W 122°24'0 0.0
2017-Nov-25 14:59N 47°38' W 122°24'0 0.0
2017-Nov-25 14:29N 47°38' W 122°24'0 0.0
2017-Nov-25 14:00N 47°38' W 122°24'0 0.0
2017-Nov-25 13:29N 47°38' W 122°24'0 0.0
2017-Nov-25 13:00N 47°38' W 122°24'0 0.0
2017-Nov-25 12:29N 47°38' W 122°24'0 0.0
2017-Nov-25 11:59N 47°38' W 122°24'0 0.0
2017-Nov-25 11:30N 47°38' W 122°24'0 0.0
2017-Nov-25 10:59N 47°38' W 122°24'0 0.0
2017-Nov-25 10:29N 47°38' W 122°24'0 0.0
2017-Nov-25 09:59N 47°38' W 122°24'0 0.0
2017-Nov-25 09:29N 47°38' W 122°24'0 0.0
2017-Nov-25 08:59N 47°38' W 122°24'0 0.0
2017-Nov-25 08:29N 47°38' W 122°24'0 0.0
2017-Nov-25 07:59N 47°38' W 122°24'0 0.0
2017-Nov-25 07:29N 47°38' W 122°24'0 0.0
2017-Nov-25 06:59N 47°38' W 122°24'0 0.0
2017-Nov-25 06:29N 47°38' W 122°24'0 0.0
2017-Nov-25 06:00N 47°38' W 122°24'0 0.0
2017-Nov-25 05:30N 47°38' W 122°24'0 0.0
2017-Nov-25 04:59N 47°38' W 122°24'0 0.0
2017-Nov-25 04:29N 47°38' W 122°24'0 0.0
2017-Nov-25 03:59N 47°38' W 122°24'0 0.0
2017-Nov-25 03:29N 47°38' W 122°24'0 0.0
2017-Nov-25 03:00N 47°38' W 122°24'0 0.0
2017-Nov-25 02:29N 47°38' W 122°24'0 0.0
2017-Nov-25 01:59N 47°38' W 122°24'0 0.0
2017-Nov-25 01:30N 47°38' W 122°24'0 0.0
2017-Nov-25 00:59N 47°38' W 122°24'0 0.0
2017-Nov-25 00:29N 47°38' W 122°24'0 0.0
2017-Nov-24 23:59N 47°38' W 122°24'0 0.0
2017-Nov-24 23:29N 47°38' W 122°24'0 0.0
2017-Nov-24 22:59N 47°38' W 122°24'0 0.0
2017-Nov-24 22:29N 47°38' W 122°24'0 0.0
2017-Nov-24 21:59N 47°38' W 122°24'0 0.0
2017-Nov-24 21:29N 47°38' W 122°24'0 0.0
2017-Nov-24 20:59N 47°38' W 122°24'0 0.0
2017-Nov-24 20:29N 47°38' W 122°24'0 0.0
2017-Nov-24 19:59N 47°38' W 122°24'0 0.0
2017-Nov-24 19:29N 47°38' W 122°24'0 0.0
2017-Nov-24 19:00N 47°38' W 122°24'0 0.0
2017-Nov-24 18:29N 47°38' W 122°24'0 0.0
2017-Nov-24 17:59N 47°38' W 122°24'0 0.0
2017-Nov-24 17:29N 47°38' W 122°24'0 0.0
2017-Nov-24 17:00N 47°38' W 122°24'0 0.0
2017-Nov-24 16:30N 47°38' W 122°24'0 0.0
2017-Nov-24 15:56N 47°38' W 122°24'0 0.0
2017-Nov-24 15:29N 47°38' W 122°24'0 0.0
2017-Nov-24 14:59N 47°38' W 122°24'0 0.0
2017-Nov-24 14:30N 47°38' W 122°24'0 0.0
2017-Nov-24 14:00N 47°38' W 122°24'0 0.0
2017-Nov-24 13:29N 47°38' W 122°24'0 0.0
2017-Nov-24 12:59N 47°38' W 122°24'0 0.0
2017-Nov-24 12:29N 47°38' W 122°24'0 0.0
2017-Nov-24 11:59N 47°38' W 122°24'0 0.0
2017-Nov-24 11:29N 47°38' W 122°24'0 0.0
2017-Nov-24 11:00N 47°38' W 122°24'0 0.0
2017-Nov-24 10:30N 47°38' W 122°24'0 0.0
2017-Nov-24 09:59N 47°38' W 122°24'0 0.0
2017-Nov-24 09:29N 47°38' W 122°24'0 0.0
2017-Nov-24 08:59N 47°38' W 122°24'0 0.0
2017-Nov-24 08:29N 47°38' W 122°24'0 0.0
2017-Nov-24 07:59N 47°38' W 122°24'0 0.0
2017-Nov-24 07:29N 47°38' W 122°24'0 0.0
2017-Nov-24 07:00N 47°38' W 122°24'0 0.0
2017-Nov-24 06:29N 47°38' W 122°24'0 0.0
2017-Nov-24 05:59N 47°38' W 122°24'0 0.0
2017-Nov-24 05:29N 47°38' W 122°24'0 0.0
2017-Nov-24 04:59N 47°38' W 122°24'0 0.0
2017-Nov-24 04:30N 47°38' W 122°24'0 0.0
2017-Nov-24 04:00N 47°38' W 122°24'0 0.0
2017-Nov-24 03:29N 47°38' W 122°24'0 0.0
2017-Nov-24 03:00N 47°38' W 122°24'0 0.0
2017-Nov-24 02:30N 47°38' W 122°24'0 0.0
2017-Nov-24 02:00N 47°38' W 122°24'0 0.0
2017-Nov-24 01:29N 47°38' W 122°24'0 0.0
2017-Nov-24 00:59N 47°38' W 122°24'0 0.0
2017-Nov-24 00:29N 47°38' W 122°24'0 0.0
2017-Nov-23 23:59N 47°38' W 122°24'0 0.0
2017-Nov-23 23:29N 47°38' W 122°24'0 0.0
2017-Nov-23 22:59N 47°38' W 122°24'0 0.0
2017-Nov-23 22:29N 47°38' W 122°24'0 0.0
2017-Nov-23 21:59N 47°38' W 122°24'0 0.0
2017-Nov-23 21:29N 47°38' W 122°24'0 0.0
2017-Nov-23 20:59N 47°38' W 122°24'0 0.0
2017-Nov-23 20:29N 47°38' W 122°24'0 0.0
2017-Nov-23 19:59N 47°38' W 122°24'0 0.0
2017-Nov-23 19:29N 47°38' W 122°24'0 0.0
2017-Nov-23 18:59N 47°38' W 122°24'0 0.0
2017-Nov-23 18:29N 47°38' W 122°24'0 0.0
2017-Nov-23 17:59N 47°38' W 122°24'0 0.0
2017-Nov-23 17:29N 47°38' W 122°24'0 0.0
2017-Nov-23 16:59N 47°38' W 122°24'0 0.0
2017-Nov-23 16:29N 47°38' W 122°24'0 0.0
2017-Nov-23 15:59N 47°38' W 122°24'0 0.0
2017-Nov-23 15:29N 47°38' W 122°24'0 0.0
2017-Nov-23 14:59N 47°38' W 122°24'0 0.0
2017-Nov-23 14:29N 47°38' W 122°24'0 0.0
2017-Nov-23 13:59N 47°38' W 122°24'0 0.0
2017-Nov-23 13:29N 47°38' W 122°24'0 0.0
2017-Nov-23 12:59N 47°38' W 122°24'0 0.0
2017-Nov-23 12:29N 47°38' W 122°24'0 0.0
2017-Nov-23 11:59N 47°38' W 122°24'0 0.0
2017-Nov-23 11:29N 47°38' W 122°24'0 0.0
2017-Nov-23 10:59N 47°38' W 122°24'0 0.0
2017-Nov-23 10:29N 47°38' W 122°24'0 0.0
2017-Nov-23 09:59N 47°38' W 122°24'0 0.0
2017-Nov-23 09:29N 47°38' W 122°24'0 0.0
2017-Nov-23 08:59N 47°38' W 122°24'0 0.0
2017-Nov-23 08:29N 47°38' W 122°24'0 0.0
2017-Nov-23 07:59N 47°38' W 122°24'0 0.0
2017-Nov-23 07:29N 47°38' W 122°24'0 0.0
2017-Nov-23 06:59N 47°38' W 122°24'0 0.0
2017-Nov-23 06:29N 47°38' W 122°24'0 0.0
2017-Nov-23 05:59N 47°38' W 122°24'0 0.0
2017-Nov-23 05:29N 47°38' W 122°24'0 0.0
2017-Nov-23 04:59N 47°38' W 122°24'0 0.0
2017-Nov-23 04:29N 47°38' W 122°24'0 0.0
2017-Nov-23 03:59N 47°38' W 122°24'0 0.0
2017-Nov-23 03:29N 47°38' W 122°24'0 0.0
2017-Nov-23 02:59N 47°38' W 122°24'0 0.0
2017-Nov-23 02:29N 47°38' W 122°24'0 0.0
2017-Nov-23 01:59N 47°38' W 122°24'0 0.0
2017-Nov-23 01:29N 47°38' W 122°24'0 0.0
2017-Nov-23 00:59N 47°38' W 122°24'0 0.0
2017-Nov-23 00:29N 47°38' W 122°24'0 0.0
2017-Nov-22 23:59N 47°38' W 122°24'0 0.0
2017-Nov-22 23:29N 47°38' W 122°24'0 0.0
2017-Nov-22 22:59N 47°38' W 122°24'0 0.0
2017-Nov-22 22:29N 47°38' W 122°24'0 0.0
2017-Nov-22 21:59N 47°38' W 122°24'0 0.0
2017-Nov-22 21:29N 47°38' W 122°24'0 0.0
2017-Nov-22 20:59N 47°38' W 122°24'0 0.0
2017-Nov-22 20:29N 47°38' W 122°24'0 0.0
2017-Nov-22 19:59N 47°38' W 122°24'0 0.0
2017-Nov-22 19:29N 47°38' W 122°24'  
2017-Nov-20 00:29N 47°38' W 122°24'0 0.0
2017-Nov-19 23:59N 47°38' W 122°24'0 0.0
2017-Nov-19 23:29N 47°38' W 122°24'0 0.0
2017-Nov-19 23:00N 47°38' W 122°24'0 0.0
2017-Nov-19 22:30N 47°38' W 122°24'0 0.0
2017-Nov-19 22:00N 47°38' W 122°24'0 0.0
2017-Nov-19 21:30N 47°38' W 122°24'  

Dump ship's entire track history